sensor_id;sensor_type;location;lat;lon;timestamp;temperature;humidity
8220;DHT22;4151;51.110;7.020;2023-04-30T00:01:41;8.60;99.90
8220;DHT22;4151;51.110;7.020;2023-04-30T00:04:06;8.60;99.90
8220;DHT22;4151;51.110;7.020;2023-04-30T00:06:32;8.60;99.90
8220;DHT22;4151;51.110;7.020;2023-04-30T00:08:57;8.60;99.90
8220;DHT22;4151;51.110;7.020;2023-04-30T00:11:23;8.50;99.90
8220;DHT22;4151;51.110;7.020;2023-04-30T00:13:50;8.40;99.90
8220;DHT22;4151;51.110;7.020;2023-04-30T00:16:16;8.40;99.90
8220;DHT22;4151;51.110;7.020;2023-04-30T00:18:42;8.40;99.90
8220;DHT22;4151;51.110;7.020;2023-04-30T00:21:08;8.30;99.90
8220;DHT22;4151;51.110;7.020;2023-04-30T00:23:33;8.40;99.90
8220;DHT22;4151;51.110;7.020;2023-04-30T00:25:59;8.30;99.90
8220;DHT22;4151;51.110;7.020;2023-04-30T00:28:24;8.30;99.90
8220;DHT22;4151;51.110;7.020;2023-04-30T00:30:50;8.30;99.90
8220;DHT22;4151;51.110;7.020;2023-04-30T00:33:16;8.30;99.90
8220;DHT22;4151;51.110;7.020;2023-04-30T00:35:41;8.30;99.90
8220;DHT22;4151;51.110;7.020;2023-04-30T00:38:07;8.30;99.90
8220;DHT22;4151;51.110;7.020;2023-04-30T00:40:34;8.20;99.90
8220;DHT22;4151;51.110;7.020;2023-04-30T00:43:00;8.10;99.90
8220;DHT22;4151;51.110;7.020;2023-04-30T00:45:25;8.20;99.90
8220;DHT22;4151;51.110;7.020;2023-04-30T00:47:51;8.10;99.90
8220;DHT22;4151;51.110;7.020;2023-04-30T00:50:17;8.10;99.90
8220;DHT22;4151;51.110;7.020;2023-04-30T00:52:42;8.10;99.90
8220;DHT22;4151;51.110;7.020;2023-04-30T00:55:10;8.00;99.90
8220;DHT22;4151;51.110;7.020;2023-04-30T00:57:36;8.00;99.90
8220;DHT22;4151;51.110;7.020;2023-04-30T01:00:02;8.00;99.90
8220;DHT22;4151;51.110;7.020;2023-04-30T01:02:29;8.00;99.90
8220;DHT22;4151;51.110;7.020;2023-04-30T01:04:56;8.00;99.90
8220;DHT22;4151;51.110;7.020;2023-04-30T01:07:24;7.90;99.90
8220;DHT22;4151;51.110;7.020;2023-04-30T01:09:53;7.90;99.90
8220;DHT22;4151;51.110;7.020;2023-04-30T01:12:45;7.80;99.90
8220;DHT22;4151;51.110;7.020;2023-04-30T01:20:31;7.80;99.90
8220;DHT22;4151;51.110;7.020;2023-04-30T01:28:36;7.80;99.90
8220;DHT22;4151;51.110;7.020;2023-04-30T01:31:02;7.70;99.90
8220;DHT22;4151;51.110;7.020;2023-04-30T01:33:28;7.70;99.90
8220;DHT22;4151;51.110;7.020;2023-04-30T01:41:09;7.70;99.90
8220;DHT22;4151;51.110;7.020;2023-04-30T01:43:47;7.80;99.90
8220;DHT22;4151;51.110;7.020;2023-04-30T01:46:29;7.70;99.90
8220;DHT22;4151;51.110;7.020;2023-04-30T01:49:18;7.90;99.90
8220;DHT22;4151;51.110;7.020;2023-04-30T01:51:47;7.90;99.90
8220;DHT22;4151;51.110;7.020;2023-04-30T01:57:06;8.00;99.90
8220;DHT22;4151;51.110;7.020;2023-04-30T01:59:34;8.00;99.90
8220;DHT22;4151;51.110;7.020;2023-04-30T02:01:59;7.90;99.90
8220;DHT22;4151;51.110;7.020;2023-04-30T02:04:25;7.90;99.90
8220;DHT22;4151;51.110;7.020;2023-04-30T02:06:51;7.90;99.90
8220;DHT22;4151;51.110;7.020;2023-04-30T02:09:16;7.80;99.90
8220;DHT22;4151;51.110;7.020;2023-04-30T02:11:42;7.80;99.90
8220;DHT22;4151;51.110;7.020;2023-04-30T02:14:08;7.80;99.90
8220;DHT22;4151;51.110;7.020;2023-04-30T02:16:34;7.80;99.90
8220;DHT22;4151;51.110;7.020;2023-04-30T02:19:00;7.70;99.90
8220;DHT22;4151;51.110;7.020;2023-04-30T02:21:25;7.70;99.90
8220;DHT22;4151;51.110;7.020;2023-04-30T02:23:51;7.60;99.90
8220;DHT22;4151;51.110;7.020;2023-04-30T02:26:17;7.50;99.90
8220;DHT22;4151;51.110;7.020;2023-04-30T02:28:42;7.50;99.90
8220;DHT22;4151;51.110;7.020;2023-04-30T02:31:08;7.50;99.90
8220;DHT22;4151;51.110;7.020;2023-04-30T02:33:33;7.40;99.90
8220;DHT22;4151;51.110;7.020;2023-04-30T02:35:59;7.40;99.90
8220;DHT22;4151;51.110;7.020;2023-04-30T02:38:25;7.30;99.90
8220;DHT22;4151;51.110;7.020;2023-04-30T02:40:51;7.30;99.90
8220;DHT22;4151;51.110;7.020;2023-04-30T02:43:16;7.30;99.90
8220;DHT22;4151;51.110;7.020;2023-04-30T02:45:42;7.20;99.90
8220;DHT22;4151;51.110;7.020;2023-04-30T02:48:07;7.20;99.90
8220;DHT22;4151;51.110;7.020;2023-04-30T02:50:33;7.20;99.90
8220;DHT22;4151;51.110;7.020;2023-04-30T02:52:58;7.20;99.90
8220;DHT22;4151;51.110;7.020;2023-04-30T02:55:24;7.20;99.90
8220;DHT22;4151;51.110;7.020;2023-04-30T02:57:50;7.20;99.90
8220;DHT22;4151;51.110;7.020;2023-04-30T03:00:15;7.20;99.90
8220;DHT22;4151;51.110;7.020;2023-04-30T03:02:42;7.30;99.90
8220;DHT22;4151;51.110;7.020;2023-04-30T03:05:08;7.30;99.90
8220;DHT22;4151;51.110;7.020;2023-04-30T03:07:33;7.30;99.90
8220;DHT22;4151;51.110;7.020;2023-04-30T03:09:59;7.30;99.90
8220;DHT22;4151;51.110;7.020;2023-04-30T03:12:24;7.30;99.90
8220;DHT22;4151;51.110;7.020;2023-04-30T03:14:50;7.20;99.90
8220;DHT22;4151;51.110;7.020;2023-04-30T03:17:16;7.20;99.90
8220;DHT22;4151;51.110;7.020;2023-04-30T03:19:42;7.20;99.90
8220;DHT22;4151;51.110;7.020;2023-04-30T03:22:09;7.20;99.90
8220;DHT22;4151;51.110;7.020;2023-04-30T03:24:35;7.20;99.90
8220;DHT22;4151;51.110;7.020;2023-04-30T03:27:00;7.30;99.90
8220;DHT22;4151;51.110;7.020;2023-04-30T03:29:26;7.30;99.90
8220;DHT22;4151;51.110;7.020;2023-04-30T03:31:51;7.30;99.90
8220;DHT22;4151;51.110;7.020;2023-04-30T03:34:17;7.30;99.90
8220;DHT22;4151;51.110;7.020;2023-04-30T03:36:43;7.20;99.90
8220;DHT22;4151;51.110;7.020;2023-04-30T03:39:08;7.20;99.90
8220;DHT22;4151;51.110;7.020;2023-04-30T03:41:34;7.20;99.90
8220;DHT22;4151;51.110;7.020;2023-04-30T03:44:00;7.10;99.90
8220;DHT22;4151;51.110;7.020;2023-04-30T03:46:26;7.10;99.90
8220;DHT22;4151;51.110;7.020;2023-04-30T03:48:52;7.00;99.90
8220;DHT22;4151;51.110;7.020;2023-04-30T03:51:20;7.00;99.90
8220;DHT22;4151;51.110;7.020;2023-04-30T03:53:46;6.90;99.90
8220;DHT22;4151;51.110;7.020;2023-04-30T03:56:12;6.90;99.90
8220;DHT22;4151;51.110;7.020;2023-04-30T03:58:38;6.90;99.90
8220;DHT22;4151;51.110;7.020;2023-04-30T04:01:04;6.80;99.90
8220;DHT22;4151;51.110;7.020;2023-04-30T04:03:29;6.70;99.90
8220;DHT22;4151;51.110;7.020;2023-04-30T04:05:55;6.70;99.90
8220;DHT22;4151;51.110;7.020;2023-04-30T04:08:21;6.60;99.90
8220;DHT22;4151;51.110;7.020;2023-04-30T04:10:46;6.50;99.90
8220;DHT22;4151;51.110;7.020;2023-04-30T04:13:12;6.40;99.90
8220;DHT22;4151;51.110;7.020;2023-04-30T04:15:37;6.30;99.90
8220;DHT22;4151;51.110;7.020;2023-04-30T04:18:03;6.20;99.90
8220;DHT22;4151;51.110;7.020;2023-04-30T04:20:31;6.20;99.90
8220;DHT22;4151;51.110;7.020;2023-04-30T04:22:56;6.10;99.90
8220;DHT22;4151;51.110;7.020;2023-04-30T04:25:22;6.10;99.90
8220;DHT22;4151;51.110;7.020;2023-04-30T04:27:50;6.10;99.90
8220;DHT22;4151;51.110;7.020;2023-04-30T04:30:16;6.10;99.90
8220;DHT22;4151;51.110;7.020;2023-04-30T04:32:42;6.00;99.90
8220;DHT22;4151;51.110;7.020;2023-04-30T04:44:06;6.00;99.90
8220;DHT22;4151;51.110;7.020;2023-04-30T04:46:33;6.00;99.90
8220;DHT22;4151;51.110;7.020;2023-04-30T04:48:58;6.00;99.90
8220;DHT22;4151;51.110;7.020;2023-04-30T04:51:24;6.00;99.90
8220;DHT22;4151;51.110;7.020;2023-04-30T04:53:49;6.00;99.90
8220;DHT22;4151;51.110;7.020;2023-04-30T04:56:15;6.00;99.90
8220;DHT22;4151;51.110;7.020;2023-04-30T04:58:41;6.00;99.90
8220;DHT22;4151;51.110;7.020;2023-04-30T05:01:07;6.00;99.90
8220;DHT22;4151;51.110;7.020;2023-04-30T05:03:34;6.00;99.90
8220;DHT22;4151;51.110;7.020;2023-04-30T05:06:04;6.10;99.90
8220;DHT22;4151;51.110;7.020;2023-04-30T05:08:30;6.10;99.90
8220;DHT22;4151;51.110;7.020;2023-04-30T05:10:55;6.10;99.90
8220;DHT22;4151;51.110;7.020;2023-04-30T05:13:21;6.10;99.90
8220;DHT22;4151;51.110;7.020;2023-04-30T05:15:49;6.10;99.90
8220;DHT22;4151;51.110;7.020;2023-04-30T05:18:15;6.20;99.90
8220;DHT22;4151;51.110;7.020;2023-04-30T05:20:41;6.20;99.90
8220;DHT22;4151;51.110;7.020;2023-04-30T05:23:06;6.30;99.90
8220;DHT22;4151;51.110;7.020;2023-04-30T05:25:32;6.40;99.90
8220;DHT22;4151;51.110;7.020;2023-04-30T05:27:58;6.50;99.90
8220;DHT22;4151;51.110;7.020;2023-04-30T05:30:23;6.50;99.90
8220;DHT22;4151;51.110;7.020;2023-04-30T05:32:49;6.60;99.90
8220;DHT22;4151;51.110;7.020;2023-04-30T05:35:17;6.70;99.90
8220;DHT22;4151;51.110;7.020;2023-04-30T05:37:43;6.80;99.90
8220;DHT22;4151;51.110;7.020;2023-04-30T05:40:08;6.90;99.90
8220;DHT22;4151;51.110;7.020;2023-04-30T05:42:34;6.90;99.90
8220;DHT22;4151;51.110;7.020;2023-04-30T05:45:01;7.00;99.90
8220;DHT22;4151;51.110;7.020;2023-04-30T05:47:27;7.00;99.90
8220;DHT22;4151;51.110;7.020;2023-04-30T05:49:52;7.10;99.90
8220;DHT22;4151;51.110;7.020;2023-04-30T05:52:18;7.20;99.90
8220;DHT22;4151;51.110;7.020;2023-04-30T05:54:43;7.30;99.90
8220;DHT22;4151;51.110;7.020;2023-04-30T05:57:09;7.40;99.90
8220;DHT22;4151;51.110;7.020;2023-04-30T05:59:34;7.50;99.90
8220;DHT22;4151;51.110;7.020;2023-04-30T06:02:00;7.60;99.90
8220;DHT22;4151;51.110;7.020;2023-04-30T06:04:26;7.60;99.90
8220;DHT22;4151;51.110;7.020;2023-04-30T06:06:51;7.70;99.90
8220;DHT22;4151;51.110;7.020;2023-04-30T06:09:17;7.90;99.90
8220;DHT22;4151;51.110;7.020;2023-04-30T06:11:42;8.00;99.90
8220;DHT22;4151;51.110;7.020;2023-04-30T06:14:10;8.10;99.90
8220;DHT22;4151;51.110;7.020;2023-04-30T06:16:35;8.20;99.90
8220;DHT22;4151;51.110;7.020;2023-04-30T06:19:01;8.40;99.90
8220;DHT22;4151;51.110;7.020;2023-04-30T06:21:27;8.50;99.90
8220;DHT22;4151;51.110;7.020;2023-04-30T06:23:53;8.70;99.90
8220;DHT22;4151;51.110;7.020;2023-04-30T06:26:18;8.80;99.90
8220;DHT22;4151;51.110;7.020;2023-04-30T06:28:44;9.00;99.90
8220;DHT22;4151;51.110;7.020;2023-04-30T06:31:10;9.10;99.90
8220;DHT22;4151;51.110;7.020;2023-04-30T06:33:36;9.20;99.90
8220;DHT22;4151;51.110;7.020;2023-04-30T06:36:02;9.40;99.90
8220;DHT22;4151;51.110;7.020;2023-04-30T06:38:28;9.50;99.90
8220;DHT22;4151;51.110;7.020;2023-04-30T06:40:53;9.60;99.90
8220;DHT22;4151;51.110;7.020;2023-04-30T06:43:19;9.80;99.90
8220;DHT22;4151;51.110;7.020;2023-04-30T06:45:44;9.90;99.90
8220;DHT22;4151;51.110;7.020;2023-04-30T06:48:10;10.00;99.90
8220;DHT22;4151;51.110;7.020;2023-04-30T06:50:36;10.20;99.90
8220;DHT22;4151;51.110;7.020;2023-04-30T06:53:12;10.30;99.90
8220;DHT22;4151;51.110;7.020;2023-04-30T06:55:38;10.30;99.90
8220;DHT22;4151;51.110;7.020;2023-04-30T06:58:04;10.30;99.90
8220;DHT22;4151;51.110;7.020;2023-04-30T07:00:33;10.40;99.90
8220;DHT22;4151;51.110;7.020;2023-04-30T07:02:58;10.50;99.90
8220;DHT22;4151;51.110;7.020;2023-04-30T07:05:27;10.70;99.90
8220;DHT22;4151;51.110;7.020;2023-04-30T07:07:52;10.80;99.90
8220;DHT22;4151;51.110;7.020;2023-04-30T07:10:18;11.00;99.90
8220;DHT22;4151;51.110;7.020;2023-04-30T07:12:44;11.20;99.90
8220;DHT22;4151;51.110;7.020;2023-04-30T07:15:10;11.40;99.90
8220;DHT22;4151;51.110;7.020;2023-04-30T07:17:35;11.50;99.90
8220;DHT22;4151;51.110;7.020;2023-04-30T07:20:02;11.70;99.90
8220;DHT22;4151;51.110;7.020;2023-04-30T07:22:29;11.80;99.90
8220;DHT22;4151;51.110;7.020;2023-04-30T07:24:54;11.90;99.90
8220;DHT22;4151;51.110;7.020;2023-04-30T07:27:20;11.90;99.90
8220;DHT22;4151;51.110;7.020;2023-04-30T07:29:46;11.90;99.90
8220;DHT22;4151;51.110;7.020;2023-04-30T07:32:11;12.10;99.90
8220;DHT22;4151;51.110;7.020;2023-04-30T07:34:37;12.30;99.90
8220;DHT22;4151;51.110;7.020;2023-04-30T07:37:02;12.40;99.90
8220;DHT22;4151;51.110;7.020;2023-04-30T07:39:28;12.40;99.90
8220;DHT22;4151;51.110;7.020;2023-04-30T07:41:55;12.60;99.90
8220;DHT22;4151;51.110;7.020;2023-04-30T07:44:20;12.70;99.90
8220;DHT22;4151;51.110;7.020;2023-04-30T07:46:46;12.80;99.90
8220;DHT22;4151;51.110;7.020;2023-04-30T07:49:12;12.80;99.90
8220;DHT22;4151;51.110;7.020;2023-04-30T07:51:37;12.90;99.90
8220;DHT22;4151;51.110;7.020;2023-04-30T07:54:03;13.00;99.90
8220;DHT22;4151;51.110;7.020;2023-04-30T07:56:29;13.10;99.90
8220;DHT22;4151;51.110;7.020;2023-04-30T07:58:55;13.20;99.90
8220;DHT22;4151;51.110;7.020;2023-04-30T08:01:20;13.30;99.90
8220;DHT22;4151;51.110;7.020;2023-04-30T08:03:46;13.50;99.90
8220;DHT22;4151;51.110;7.020;2023-04-30T08:06:11;13.60;99.90
8220;DHT22;4151;51.110;7.020;2023-04-30T08:08:37;13.70;99.90
8220;DHT22;4151;51.110;7.020;2023-04-30T08:11:03;13.80;99.90
8220;DHT22;4151;51.110;7.020;2023-04-30T08:13:29;13.90;99.90
8220;DHT22;4151;51.110;7.020;2023-04-30T08:15:55;14.10;99.90
8220;DHT22;4151;51.110;7.020;2023-04-30T08:18:20;14.30;99.90
8220;DHT22;4151;51.110;7.020;2023-04-30T08:20:46;14.50;99.90
8220;DHT22;4151;51.110;7.020;2023-04-30T08:23:12;14.70;99.90
8220;DHT22;4151;51.110;7.020;2023-04-30T08:25:38;14.80;99.90
8220;DHT22;4151;51.110;7.020;2023-04-30T08:28:05;14.90;99.90
8220;DHT22;4151;51.110;7.020;2023-04-30T08:30:30;15.10;99.90
8220;DHT22;4151;51.110;7.020;2023-04-30T08:32:56;15.30;99.90
8220;DHT22;4151;51.110;7.020;2023-04-30T08:35:22;15.60;99.90
8220;DHT22;4151;51.110;7.020;2023-04-30T08:37:47;15.70;99.90
8220;DHT22;4151;51.110;7.020;2023-04-30T08:40:13;15.90;99.90
8220;DHT22;4151;51.110;7.020;2023-04-30T08:42:44;16.30;99.90
8220;DHT22;4151;51.110;7.020;2023-04-30T08:45:11;16.70;99.90
8220;DHT22;4151;51.110;7.020;2023-04-30T08:47:37;16.80;99.90
8220;DHT22;4151;51.110;7.020;2023-04-30T08:50:04;16.90;99.90
8220;DHT22;4151;51.110;7.020;2023-04-30T08:52:34;17.20;99.90
8220;DHT22;4151;51.110;7.020;2023-04-30T08:55:02;17.50;99.90
8220;DHT22;4151;51.110;7.020;2023-04-30T08:57:31;18.30;99.90
8220;DHT22;4151;51.110;7.020;2023-04-30T08:59:56;18.90;99.90
8220;DHT22;4151;51.110;7.020;2023-04-30T09:02:22;19.40;99.90
8220;DHT22;4151;51.110;7.020;2023-04-30T09:04:48;19.60;99.90
8220;DHT22;4151;51.110;7.020;2023-04-30T09:07:14;19.50;99.90
8220;DHT22;4151;51.110;7.020;2023-04-30T09:09:40;19.10;99.90
8220;DHT22;4151;51.110;7.020;2023-04-30T09:12:16;19.40;99.90
8220;DHT22;4151;51.110;7.020;2023-04-30T09:15:03;18.50;99.90
8220;DHT22;4151;51.110;7.020;2023-04-30T09:17:30;18.30;99.90
8220;DHT22;4151;51.110;7.020;2023-04-30T09:20:10;18.40;99.90
8220;DHT22;4151;51.110;7.020;2023-04-30T09:22:37;18.80;99.90
8220;DHT22;4151;51.110;7.020;2023-04-30T09:25:04;19.00;99.90
8220;DHT22;4151;51.110;7.020;2023-04-30T09:27:30;19.10;99.90
8220;DHT22;4151;51.110;7.020;2023-04-30T09:29:56;19.30;99.90
8220;DHT22;4151;51.110;7.020;2023-04-30T09:32:21;19.90;99.90
8220;DHT22;4151;51.110;7.020;2023-04-30T09:34:47;20.60;99.90
8220;DHT22;4151;51.110;7.020;2023-04-30T09:37:12;20.90;99.90
8220;DHT22;4151;51.110;7.020;2023-04-30T09:39:53;21.40;99.90
8220;DHT22;4151;51.110;7.020;2023-04-30T09:42:19;21.40;99.90
8220;DHT22;4151;51.110;7.020;2023-04-30T09:44:45;21.20;99.90
8220;DHT22;4151;51.110;7.020;2023-04-30T09:47:18;21.40;99.90
8220;DHT22;4151;51.110;7.020;2023-04-30T09:49:49;21.30;99.90
8220;DHT22;4151;51.110;7.020;2023-04-30T09:52:18;21.40;99.90
8220;DHT22;4151;51.110;7.020;2023-04-30T09:54:45;22.20;99.90
8220;DHT22;4151;51.110;7.020;2023-04-30T09:57:13;23.00;99.90
8220;DHT22;4151;51.110;7.020;2023-04-30T09:59:43;23.30;99.90
8220;DHT22;4151;51.110;7.020;2023-04-30T10:02:09;23.10;99.90
8220;DHT22;4151;51.110;7.020;2023-04-30T10:04:40;23.40;99.90
8220;DHT22;4151;51.110;7.020;2023-04-30T10:07:18;23.80;99.90
8220;DHT22;4151;51.110;7.020;2023-04-30T10:09:53;23.90;99.70
8220;DHT22;4151;51.110;7.020;2023-04-30T10:12:38;23.60;99.10
8220;DHT22;4151;51.110;7.020;2023-04-30T10:15:27;24.20;97.50
8220;DHT22;4151;51.110;7.020;2023-04-30T10:18:19;24.90;93.60
8220;DHT22;4151;51.110;7.020;2023-04-30T10:20:48;24.30;92.80
8220;DHT22;4151;51.110;7.020;2023-04-30T10:23:15;23.30;96.40
8220;DHT22;4151;51.110;7.020;2023-04-30T10:25:40;23.10;95.40
8220;DHT22;4151;51.110;7.020;2023-04-30T10:28:08;23.10;94.30
8220;DHT22;4151;51.110;7.020;2023-04-30T10:30:37;22.50;98.20
8220;DHT22;4151;51.110;7.020;2023-04-30T10:36:02;21.50;99.60
8220;DHT22;4151;51.110;7.020;2023-04-30T10:38:30;21.30;99.90
8220;DHT22;4151;51.110;7.020;2023-04-30T10:40:58;21.40;99.90
8220;DHT22;4151;51.110;7.020;2023-04-30T10:43:26;21.40;99.80
8220;DHT22;4151;51.110;7.020;2023-04-30T10:45:57;21.20;99.90
8220;DHT22;4151;51.110;7.020;2023-04-30T10:48:23;21.30;99.90
8220;DHT22;4151;51.110;7.020;2023-04-30T10:50:52;21.60;99.70
8220;DHT22;4151;51.110;7.020;2023-04-30T10:53:20;22.80;96.70
8220;DHT22;4151;51.110;7.020;2023-04-30T10:56:07;23.60;94.10
8220;DHT22;4151;51.110;7.020;2023-04-30T10:58:39;23.30;94.30
8220;DHT22;4151;51.110;7.020;2023-04-30T11:01:12;22.90;94.20
8220;DHT22;4151;51.110;7.020;2023-04-30T11:04:02;22.00;96.00
8220;DHT22;4151;51.110;7.020;2023-04-30T11:09:16;20.90;99.80
8220;DHT22;4151;51.110;7.020;2023-04-30T11:11:43;20.90;98.30
8220;DHT22;4151;51.110;7.020;2023-04-30T11:14:10;20.90;99.20
8220;DHT22;4151;51.110;7.020;2023-04-30T11:16:36;21.40;99.30
8220;DHT22;4151;51.110;7.020;2023-04-30T11:19:08;22.50;99.10
8220;DHT22;4151;51.110;7.020;2023-04-30T11:21:39;23.50;95.90
8220;DHT22;4151;51.110;7.020;2023-04-30T11:24:05;24.70;93.20
8220;DHT22;4151;51.110;7.020;2023-04-30T11:27:03;25.60;91.50
8220;DHT22;4151;51.110;7.020;2023-04-30T11:29:33;25.70;91.60
8220;DHT22;4151;51.110;7.020;2023-04-30T11:32:03;24.50;92.60
8220;DHT22;4151;51.110;7.020;2023-04-30T11:34:30;23.80;93.20
8220;DHT22;4151;51.110;7.020;2023-04-30T11:36:58;23.20;94.30
8220;DHT22;4151;51.110;7.020;2023-04-30T11:39:26;22.50;95.80
8220;DHT22;4151;51.110;7.020;2023-04-30T11:41:52;22.30;96.80
8220;DHT22;4151;51.110;7.020;2023-04-30T11:44:36;23.00;96.40
8220;DHT22;4151;51.110;7.020;2023-04-30T11:47:03;24.10;94.50
8220;DHT22;4151;51.110;7.020;2023-04-30T11:49:28;24.20;93.50
8220;DHT22;4151;51.110;7.020;2023-04-30T11:51:55;24.60;92.10
8220;DHT22;4151;51.110;7.020;2023-04-30T11:54:21;23.90;94.40
8220;DHT22;4151;51.110;7.020;2023-04-30T11:56:47;24.60;93.20
8220;DHT22;4151;51.110;7.020;2023-04-30T11:59:13;25.50;91.00
8220;DHT22;4151;51.110;7.020;2023-04-30T12:01:40;26.00;88.70
8220;DHT22;4151;51.110;7.020;2023-04-30T12:04:06;25.70;84.50
8220;DHT22;4151;51.110;7.020;2023-04-30T12:06:33;25.60;87.10
8220;DHT22;4151;51.110;7.020;2023-04-30T12:09:00;24.70;87.90
8220;DHT22;4151;51.110;7.020;2023-04-30T12:11:29;23.60;90.40
8220;DHT22;4151;51.110;7.020;2023-04-30T12:13:59;23.50;90.80
8220;DHT22;4151;51.110;7.020;2023-04-30T12:16:26;24.40;88.70
8220;DHT22;4151;51.110;7.020;2023-04-30T12:18:52;25.30;85.20
8220;DHT22;4151;51.110;7.020;2023-04-30T12:21:19;25.40;86.00
8220;DHT22;4151;51.110;7.020;2023-04-30T12:23:45;24.80;86.70
8220;DHT22;4151;51.110;7.020;2023-04-30T12:26:10;24.20;90.30
8220;DHT22;4151;51.110;7.020;2023-04-30T12:28:36;23.50;91.70
8220;DHT22;4151;51.110;7.020;2023-04-30T12:31:02;23.10;93.20
8220;DHT22;4151;51.110;7.020;2023-04-30T12:33:30;23.20;93.60
8220;DHT22;4151;51.110;7.020;2023-04-30T12:35:56;23.40;92.80
8220;DHT22;4151;51.110;7.020;2023-04-30T12:38:25;23.60;92.90
8220;DHT22;4151;51.110;7.020;2023-04-30T12:40:51;24.70;91.70
8220;DHT22;4151;51.110;7.020;2023-04-30T12:43:17;26.10;90.00
8220;DHT22;4151;51.110;7.020;2023-04-30T12:48:17;27.10;86.60
8220;DHT22;4151;51.110;7.020;2023-04-30T12:50:59;27.30;82.90
8220;DHT22;4151;51.110;7.020;2023-04-30T12:53:25;28.00;81.50
8220;DHT22;4151;51.110;7.020;2023-04-30T12:56:11;28.40;80.50
8220;DHT22;4151;51.110;7.020;2023-04-30T12:58:38;28.30;76.80
8220;DHT22;4151;51.110;7.020;2023-04-30T13:01:05;28.10;76.30
8220;DHT22;4151;51.110;7.020;2023-04-30T13:03:34;28.40;77.10
8220;DHT22;4151;51.110;7.020;2023-04-30T13:06:00;28.20;78.30
8220;DHT22;4151;51.110;7.020;2023-04-30T13:08:29;29.20;76.50
8220;DHT22;4151;51.110;7.020;2023-04-30T13:10:54;30.10;73.00
8220;DHT22;4151;51.110;7.020;2023-04-30T13:13:20;29.10;72.70
8220;DHT22;4151;51.110;7.020;2023-04-30T13:15:46;29.00;75.10
8220;DHT22;4151;51.110;7.020;2023-04-30T13:18:12;28.90;74.50
8220;DHT22;4151;51.110;7.020;2023-04-30T13:20:40;28.00;73.90
8220;DHT22;4151;51.110;7.020;2023-04-30T13:23:05;27.20;75.10
8220;DHT22;4151;51.110;7.020;2023-04-30T13:25:32;25.90;77.60
8220;DHT22;4151;51.110;7.020;2023-04-30T13:27:58;24.50;80.80
8220;DHT22;4151;51.110;7.020;2023-04-30T13:30:24;23.80;83.90
8220;DHT22;4151;51.110;7.020;2023-04-30T13:32:49;24.30;86.20
8220;DHT22;4151;51.110;7.020;2023-04-30T13:35:16;26.20;82.60
8220;DHT22;4151;51.110;7.020;2023-04-30T13:37:42;28.30;77.30
8220;DHT22;4151;51.110;7.020;2023-04-30T13:40:08;30.10;72.80
8220;DHT22;4151;51.110;7.020;2023-04-30T13:42:36;31.40;70.10
8220;DHT22;4151;51.110;7.020;2023-04-30T13:45:06;31.70;67.90
8220;DHT22;4151;51.110;7.020;2023-04-30T13:47:31;32.80;66.10
8220;DHT22;4151;51.110;7.020;2023-04-30T13:49:57;32.70;64.70
8220;DHT22;4151;51.110;7.020;2023-04-30T13:52:23;32.70;63.30
8220;DHT22;4151;51.110;7.020;2023-04-30T13:54:48;29.00;66.00
8220;DHT22;4151;51.110;7.020;2023-04-30T13:57:14;28.00;70.30
8220;DHT22;4151;51.110;7.020;2023-04-30T13:59:39;27.30;73.40
8220;DHT22;4151;51.110;7.020;2023-04-30T14:02:05;27.80;72.80
8220;DHT22;4151;51.110;7.020;2023-04-30T14:04:31;28.70;70.30
8220;DHT22;4151;51.110;7.020;2023-04-30T14:06:57;29.20;71.10
8220;DHT22;4151;51.110;7.020;2023-04-30T14:09:22;30.50;69.70
8220;DHT22;4151;51.110;7.020;2023-04-30T14:11:48;30.80;67.50
8220;DHT22;4151;51.110;7.020;2023-04-30T14:14:14;31.40;67.60
8220;DHT22;4151;51.110;7.020;2023-04-30T14:16:40;31.80;65.10
8220;DHT22;4151;51.110;7.020;2023-04-30T14:19:06;31.50;65.00
8220;DHT22;4151;51.110;7.020;2023-04-30T14:21:32;31.20;66.30
8220;DHT22;4151;51.110;7.020;2023-04-30T14:23:57;29.80;66.20
8220;DHT22;4151;51.110;7.020;2023-04-30T14:26:23;28.70;68.00
8220;DHT22;4151;51.110;7.020;2023-04-30T14:28:49;27.50;69.50
8220;DHT22;4151;51.110;7.020;2023-04-30T14:31:14;26.30;70.70
8220;DHT22;4151;51.110;7.020;2023-04-30T14:33:40;26.60;73.00
8220;DHT22;4151;51.110;7.020;2023-04-30T14:36:06;26.80;71.70
8220;DHT22;4151;51.110;7.020;2023-04-30T14:38:32;26.80;72.60
8220;DHT22;4151;51.110;7.020;2023-04-30T14:40:58;26.50;73.90
8220;DHT22;4151;51.110;7.020;2023-04-30T14:43:23;27.20;73.70
8220;DHT22;4151;51.110;7.020;2023-04-30T14:45:49;27.80;73.00
8220;DHT22;4151;51.110;7.020;2023-04-30T14:48:15;29.30;70.60
8220;DHT22;4151;51.110;7.020;2023-04-30T14:50:42;30.10;68.00
8220;DHT22;4151;51.110;7.020;2023-04-30T14:53:08;30.70;66.90
8220;DHT22;4151;51.110;7.020;2023-04-30T14:55:36;32.60;64.80
8220;DHT22;4151;51.110;7.020;2023-04-30T14:58:01;33.30;63.40
8220;DHT22;4151;51.110;7.020;2023-04-30T15:00:27;32.90;64.30
8220;DHT22;4151;51.110;7.020;2023-04-30T15:02:53;32.50;63.60
8220;DHT22;4151;51.110;7.020;2023-04-30T15:05:19;32.30;63.30
8220;DHT22;4151;51.110;7.020;2023-04-30T15:07:45;31.90;63.60
8220;DHT22;4151;51.110;7.020;2023-04-30T15:10:11;31.50;63.20
8220;DHT22;4151;51.110;7.020;2023-04-30T15:12:37;29.90;64.70
8220;DHT22;4151;51.110;7.020;2023-04-30T15:15:04;27.60;67.60
8220;DHT22;4151;51.110;7.020;2023-04-30T15:17:30;26.30;70.60
8220;DHT22;4151;51.110;7.020;2023-04-30T15:19:59;25.30;72.90
8220;DHT22;4151;51.110;7.020;2023-04-30T15:22:26;24.70;74.70
8220;DHT22;4151;51.110;7.020;2023-04-30T15:24:52;23.80;77.20
8220;DHT22;4151;51.110;7.020;2023-04-30T15:27:18;23.20;79.60
8220;DHT22;4151;51.110;7.020;2023-04-30T15:29:43;23.40;82.10
8220;DHT22;4151;51.110;7.020;2023-04-30T15:32:11;23.10;82.70
8220;DHT22;4151;51.110;7.020;2023-04-30T15:34:36;23.30;81.20
8220;DHT22;4151;51.110;7.020;2023-04-30T15:37:02;22.90;83.70
8220;DHT22;4151;51.110;7.020;2023-04-30T15:39:27;22.70;84.50
8220;DHT22;4151;51.110;7.020;2023-04-30T15:41:53;22.40;86.30
8220;DHT22;4151;51.110;7.020;2023-04-30T15:44:18;22.30;86.70
8220;DHT22;4151;51.110;7.020;2023-04-30T15:46:44;22.10;88.00
8220;DHT22;4151;51.110;7.020;2023-04-30T15:49:10;22.10;89.10
8220;DHT22;4151;51.110;7.020;2023-04-30T15:51:35;22.10;90.00
8220;DHT22;4151;51.110;7.020;2023-04-30T15:54:01;21.90;91.30
8220;DHT22;4151;51.110;7.020;2023-04-30T15:56:28;21.70;92.00
8220;DHT22;4151;51.110;7.020;2023-04-30T15:58:53;21.70;92.00
8220;DHT22;4151;51.110;7.020;2023-04-30T16:01:20;21.70;93.00
8220;DHT22;4151;51.110;7.020;2023-04-30T16:03:47;22.00;93.10
8220;DHT22;4151;51.110;7.020;2023-04-30T16:06:13;22.50;92.30
8220;DHT22;4151;51.110;7.020;2023-04-30T16:08:40;24.40;86.90
8220;DHT22;4151;51.110;7.020;2023-04-30T16:11:05;26.30;82.60
8220;DHT22;4151;51.110;7.020;2023-04-30T16:13:32;27.40;77.30
8220;DHT22;4151;51.110;7.020;2023-04-30T16:15:58;28.00;76.90
8220;DHT22;4151;51.110;7.020;2023-04-30T16:18:23;28.60;74.10
8220;DHT22;4151;51.110;7.020;2023-04-30T16:20:49;28.80;72.40
8220;DHT22;4151;51.110;7.020;2023-04-30T16:23:16;29.40;73.00
8220;DHT22;4151;51.110;7.020;2023-04-30T16:25:41;31.20;69.50
8220;DHT22;4151;51.110;7.020;2023-04-30T16:28:07;32.40;66.80
8220;DHT22;4151;51.110;7.020;2023-04-30T16:30:33;33.00;65.90
8220;DHT22;4151;51.110;7.020;2023-04-30T16:32:58;33.00;65.20
8220;DHT22;4151;51.110;7.020;2023-04-30T16:35:24;34.00;63.40
8220;DHT22;4151;51.110;7.020;2023-04-30T16:37:50;34.00;62.60
8220;DHT22;4151;51.110;7.020;2023-04-30T16:40:16;33.90;62.00
8220;DHT22;4151;51.110;7.020;2023-04-30T16:42:41;32.60;62.80